Terminal Aerodrome Forecast
Issued by NWS

Home | Current Version | Previous Version | Text Only | Print | Product List | Glossary On
Versions: 1 2 3 4 5 6 7 8 9 10 11 12 13
372
FTUS41 KCAR 172320
TAFPQI
TAF
KPQI 172320Z 1800/1824 VRB03KT P6SM FEW250
     FM181400 18004KT P6SM BKN090
     FM182000 18005KT P6SM OVC050=

USA.gov is the U.S. government's official web portal to all federal, state and local government web resources and services.